createdAt,value
2023-11-05T00:00:17.452Z,55.544000
2023-11-05T00:05:19.948Z,55.448000
2023-11-05T00:10:22.895Z,55.580000
2023-11-05T00:15:25.252Z,55.460000
2023-11-05T00:20:27.634Z,55.292000
2023-11-05T00:25:30.861Z,55.220000
2023-11-05T00:30:33.682Z,55.100000
2023-11-05T00:35:16.131Z,54.860000
2023-11-05T00:40:19.038Z,54.860000
2023-11-05T00:45:21.916Z,54.860000
2023-11-05T00:50:24.865Z,54.795714
2023-11-05T00:55:28.118Z,54.020000
2023-11-05T01:00:30.830Z,53.780000
2023-11-05T01:05:33.412Z,53.888000
2023-11-05T01:10:16.174Z,53.780000
2023-11-05T01:15:19.228Z,53.360000
2023-11-05T01:20:21.961Z,53.228000
2023-11-05T01:25:24.636Z,52.995714
2023-11-05T01:30:27.283Z,52.652000
2023-11-05T01:35:29.801Z,52.208000
2023-11-05T01:40:32.361Z,51.764000
2023-11-05T01:45:34.777Z,51.392000
2023-11-05T01:50:17.488Z,51.224000
2023-11-05T01:55:20.259Z,50.840000
2023-11-05T02:00:22.923Z,50.874286
2023-11-05T02:05:25.697Z,50.588000
2023-11-05T02:10:28.051Z,50.732000
2023-11-05T02:15:32.057Z,50.816000
2023-11-05T02:20:33.370Z,50.492000
2023-11-05T02:25:35.954Z,50.588000
2023-11-05T02:30:18.269Z,51.068000
2023-11-05T02:35:20.749Z,51.260000
2023-11-05T02:40:23.184Z,51.414286
2023-11-05T02:45:25.443Z,51.284000
2023-11-05T02:50:28.122Z,50.996000
2023-11-05T02:55:30.920Z,50.504000
2023-11-05T03:00:35.249Z,50.060000
2023-11-05T03:05:35.716Z,49.664000
2023-11-05T03:10:17.684Z,49.424000
2023-11-05T03:15:20.340Z,49.184000
2023-11-05T03:20:23.940Z,48.997143
2023-11-05T03:25:25.416Z,48.812000
2023-11-05T03:30:28.205Z,48.428000
2023-11-05T03:35:30.928Z,48.236000
2023-11-05T03:40:33.140Z,48.296000
2023-11-05T03:45:35.674Z,48.368000
2023-11-05T03:50:18.125Z,48.392000
2023-11-05T03:55:20.463Z,48.692000
2023-11-05T04:00:23.209Z,48.675714
2023-11-05T04:05:25.717Z,48.536000
2023-11-05T04:10:29.633Z,48.332000
2023-11-05T04:15:31.066Z,48.200000
2023-11-05T04:20:33.480Z,48.200000
2023-11-05T04:25:35.717Z,47.984000
2023-11-05T04:30:17.827Z,47.708000
2023-11-05T04:35:20.279Z,47.504000
2023-11-05T04:40:23.120Z,47.480000
2023-11-05T04:45:25.662Z,47.348000
2023-11-05T04:50:28.143Z,47.372000
2023-11-05T04:55:30.742Z,47.192000
2023-11-05T05:00:33.145Z,47.156000
2023-11-05T05:05:35.677Z,47.372000
2023-11-05T05:10:17.769Z,47.420000
2023-11-05T05:15:19.825Z,47.240000
2023-11-05T05:20:22.475Z,47.338571
2023-11-05T05:25:24.824Z,47.420000
2023-11-05T05:30:27.645Z,47.048000
2023-11-05T05:35:30.318Z,47.156000
2023-11-05T05:40:33.078Z,47.504000
2023-11-05T05:45:35.817Z,47.828000
2023-11-05T05:50:18.306Z,47.840000
2023-11-05T05:55:20.983Z,48.164000
2023-11-05T06:00:23.396Z,47.827143
2023-11-05T06:05:25.976Z,47.408000
2023-11-05T06:10:27.845Z,47.036000
2023-11-05T06:15:30.533Z,46.820000
2023-11-05T06:20:32.667Z,46.604000
2023-11-05T06:25:34.964Z,46.208000
2023-11-05T06:30:17.298Z,46.040000
2023-11-05T06:35:19.792Z,46.040000
2023-11-05T06:40:22.173Z,45.980000
2023-11-05T06:45:24.741Z,46.040000
2023-11-05T06:50:27.182Z,46.268000
2023-11-05T06:55:29.911Z,46.724000
2023-11-05T07:00:32.526Z,46.976000
2023-11-05T07:05:34.983Z,47.396000
2023-11-05T07:10:17.165Z,47.504000
2023-11-05T07:15:19.642Z,47.660000
2023-11-05T07:20:21.741Z,47.564000
2023-11-05T07:25:23.897Z,47.570000
2023-11-05T07:30:26.779Z,47.396000
2023-11-05T07:35:29.598Z,47.264000
2023-11-05T07:40:32.255Z,47.120000
2023-11-05T07:45:34.879Z,47.156000
2023-11-05T07:50:17.014Z,47.420000
2023-11-05T07:55:19.856Z,47.480000
2023-11-05T08:00:22.837Z,47.582857
2023-11-05T08:05:25.754Z,47.540000
2023-11-05T08:10:28.208Z,47.336000
2023-11-05T08:15:30.276Z,47.300000
2023-11-05T08:20:32.643Z,47.300000
2023-11-05T08:25:34.477Z,47.480000
2023-11-05T08:30:16.691Z,47.564000
2023-11-05T08:35:19.662Z,47.360000
2023-11-05T08:40:21.838Z,47.216000
2023-11-05T08:45:24.395Z,47.518571
2023-11-05T08:50:27.147Z,47.792000
2023-11-05T08:55:29.834Z,48.368000
2023-11-05T09:00:31.677Z,48.560000
2023-11-05T09:05:34.044Z,48.512000
2023-11-05T09:10:16.299Z,48.380000
2023-11-05T09:15:18.708Z,48.380000
2023-11-05T09:20:21.214Z,48.344000
2023-11-05T09:25:23.777Z,48.200000
2023-11-05T09:30:26.155Z,48.092000
2023-11-05T09:35:28.230Z,48.080000
2023-11-05T09:40:30.667Z,48.020000
2023-11-05T09:45:32.995Z,47.828000
2023-11-05T09:50:35.605Z,47.756000
2023-11-05T09:55:17.138Z,48.032000
2023-11-05T10:00:19.245Z,48.200000
2023-11-05T10:05:21.316Z,48.032000
2023-11-05T10:10:23.321Z,47.750000
2023-11-05T10:15:25.893Z,47.516000
2023-11-05T10:20:28.652Z,47.660000
2023-11-05T10:25:31.547Z,47.660000
2023-11-05T10:30:33.535Z,47.540000
2023-11-05T10:35:35.738Z,47.480000
2023-11-05T10:40:18.198Z,47.480000
2023-11-05T10:45:20.563Z,47.480000
2023-11-05T10:50:23.391Z,47.505714
2023-11-05T10:55:25.725Z,47.660000
2023-11-05T11:00:27.743Z,47.660000
2023-11-05T11:05:30.541Z,47.504000
2023-11-05T11:10:32.799Z,47.324000
2023-11-05T11:15:35.576Z,47.204000
2023-11-05T11:20:17.236Z,46.976000
2023-11-05T11:25:19.887Z,46.892000
2023-11-05T11:30:22.067Z,46.760000
2023-11-05T11:35:24.746Z,46.631429
2023-11-05T11:40:26.949Z,46.424000
2023-11-05T11:45:29.325Z,46.364000
2023-11-05T11:50:31.900Z,46.220000
2023-11-05T11:55:34.675Z,46.100000
2023-11-05T12:00:16.621Z,45.872000
2023-11-05T12:05:19.186Z,45.764000
2023-11-05T12:10:21.432Z,45.776000
2023-11-05T12:15:23.603Z,45.692857
2023-11-05T12:20:26.017Z,45.860000
2023-11-05T12:25:28.451Z,45.692000
2023-11-05T12:30:30.971Z,45.476000
2023-11-05T12:35:33.198Z,45.548000
2023-11-05T12:40:35.343Z,45.656000
2023-11-05T12:45:17.450Z,45.404000
2023-11-05T12:50:19.416Z,45.428000
2023-11-05T12:55:21.688Z,45.680000
2023-11-05T13:00:24.211Z,45.615714
2023-11-05T13:05:26.937Z,45.356000
2023-11-05T13:10:28.831Z,45.356000
2023-11-05T13:15:32.646Z,45.500000
2023-11-05T13:20:33.799Z,45.644000
2023-11-05T13:25:16.122Z,46.016000
2023-11-05T13:30:18.731Z,46.220000
2023-11-05T13:35:21.398Z,46.436000
2023-11-05T13:40:23.755Z,46.580000
2023-11-05T13:45:26.355Z,46.580000
2023-11-05T13:50:29.264Z,46.544000
2023-11-05T13:55:31.657Z,46.652000
2023-11-05T14:00:34.052Z,46.412000
2023-11-05T14:05:16.518Z,46.520000
2023-11-05T14:10:18.326Z,46.616000
2023-11-05T14:15:21.370Z,46.784000
2023-11-05T14:20:23.731Z,47.094286
2023-11-05T14:25:25.995Z,47.300000
2023-11-05T14:30:28.630Z,47.204000
2023-11-05T14:35:30.982Z,47.036000
2023-11-05T14:40:33.600Z,46.940000
2023-11-05T14:45:35.859Z,46.940000
2023-11-05T14:50:17.567Z,46.760000
2023-11-05T14:55:19.599Z,46.760000
2023-11-05T15:00:21.533Z,46.760000
2023-11-05T15:05:23.619Z,46.760000
2023-11-05T15:10:26.535Z,46.832000
2023-11-05T15:15:28.724Z,46.940000
2023-11-05T15:20:31.214Z,46.940000
2023-11-05T15:25:33.967Z,46.964000
2023-11-05T15:30:15.887Z,47.204000
2023-11-05T15:35:18.357Z,47.696000
2023-11-05T15:40:20.763Z,48.320000
2023-11-05T15:45:22.986Z,48.572857
2023-11-05T15:50:25.320Z,48.740000
2023-11-05T15:55:27.905Z,48.908000
2023-11-05T16:00:30.718Z,49.124000
2023-11-05T16:05:33.160Z,49.388000
2023-11-05T16:10:35.780Z,49.760000
2023-11-05T16:15:17.677Z,50.060000
2023-11-05T16:20:19.949Z,50.240000
2023-11-05T16:25:23.138Z,50.360000
2023-11-05T16:30:25.467Z,50.384000
2023-11-05T16:35:27.664Z,50.444000
2023-11-05T16:40:29.813Z,50.360000
2023-11-05T16:45:32.230Z,50.360000
2023-11-05T16:50:34.535Z,50.360000
2023-11-05T16:55:17.575Z,50.192000
2023-11-05T17:00:19.094Z,50.360000
2023-11-05T17:05:21.511Z,50.360000
2023-11-05T17:10:23.752Z,50.450000
2023-11-05T17:15:26.086Z,50.816000
2023-11-05T17:20:28.150Z,51.452000
2023-11-05T17:25:31.012Z,52.028000
2023-11-05T17:30:33.187Z,52.472000
2023-11-05T17:35:35.609Z,52.628000
2023-11-05T17:40:17.669Z,52.856000
2023-11-05T17:45:20.561Z,52.988000
2023-11-05T17:50:23.219Z,53.188571
2023-11-05T17:55:25.451Z,53.744000
2023-11-05T18:00:28.101Z,53.948000
2023-11-05T18:05:30.574Z,53.900000
2023-11-05T18:10:43.008Z,54.380000
2023-11-05T18:15:34.961Z,55.028000
2023-11-05T18:20:17.341Z,54.992000
2023-11-05T18:25:19.809Z,55.016000
2023-11-05T18:30:22.020Z,55.364000
2023-11-05T18:35:24.176Z,56.042857
2023-11-05T18:40:26.654Z,56.696000
2023-11-05T18:47:23.775Z,57.320000
2023-11-05T18:50:30.991Z,57.548000
2023-11-05T18:55:33.336Z,57.932000
2023-11-05T19:00:35.218Z,58.340000
2023-11-05T19:05:17.116Z,57.932000
2023-11-05T19:10:18.975Z,58.808000
2023-11-05T19:15:21.300Z,59.708000
2023-11-05T19:20:23.590Z,59.617143
2023-11-05T19:25:25.708Z,60.080000
2023-11-05T19:30:27.781Z,60.116000
2023-11-05T19:35:30.085Z,59.900000
2023-11-05T19:40:32.194Z,60.296000
2023-11-05T19:45:35.013Z,60.464000
2023-11-05T19:50:16.867Z,60.512000
2023-11-05T19:55:19.476Z,60.308000
2023-11-05T20:00:22.124Z,60.548000
2023-11-05T20:05:24.519Z,60.620000
2023-11-05T20:10:26.983Z,60.824000
2023-11-05T20:15:29.351Z,61.160000
2023-11-05T20:20:31.258Z,61.124000
2023-11-05T20:25:33.564Z,61.100000
2023-11-05T20:30:35.919Z,61.508000
2023-11-05T20:35:17.830Z,61.448000
2023-11-05T20:40:20.221Z,61.484000
2023-11-05T20:45:22.731Z,61.442857
2023-11-05T20:50:24.904Z,61.700000
2023-11-05T20:55:27.352Z,61.712000
2023-11-05T21:00:29.940Z,62.372000
2023-11-05T21:05:32.229Z,61.940000
2023-11-05T21:10:43.374Z,62.648000
2023-11-05T21:15:16.809Z,62.876000
2023-11-05T21:20:19.259Z,63.056000
2023-11-05T21:25:21.690Z,63.272000
2023-11-05T21:30:23.944Z,63.230000
2023-11-05T21:35:26.290Z,62.972000
2023-11-05T21:40:28.653Z,64.208000
2023-11-05T21:45:31.392Z,64.460000
2023-11-05T21:50:34.134Z,65.684000
2023-11-05T21:55:16.269Z,65.360000
2023-11-05T22:00:18.947Z,65.876000
2023-11-05T22:05:21.327Z,65.384000
2023-11-05T22:10:23.927Z,66.354286
2023-11-05T22:15:26.147Z,66.044000
2023-11-05T22:20:28.810Z,66.224000
2023-11-05T22:25:31.156Z,65.168000
2023-11-05T22:30:33.478Z,65.828000
2023-11-05T22:35:36.282Z,66.248000
2023-11-05T22:40:21.011Z,66.824000
2023-11-05T22:45:20.384Z,67.124000
2023-11-05T22:50:22.246Z,66.662857
2023-11-05T22:55:24.574Z,66.608000
2023-11-05T23:00:27.016Z,66.632000
2023-11-05T23:05:29.107Z,66.716000
2023-11-05T23:10:31.234Z,65.408000
2023-11-05T23:15:34.007Z,65.324000
2023-11-05T23:20:16.289Z,65.648000
2023-11-05T23:25:29.109Z,66.920000
2023-11-05T23:30:21.604Z,68.264000
2023-11-05T23:35:24.166Z,66.097143
2023-11-05T23:40:26.515Z,65.372000
2023-11-05T23:45:28.952Z,66.092000
2023-11-05T23:50:31.511Z,65.516000
2023-11-05T23:55:34.022Z,65.372000
